sensor_id;sensor_type;location;lat;lon;timestamp;temperature;humidity
23703;DHT22;12030;50.376;8.762;2022-08-06T00:00:37;15.20;99.90
23703;DHT22;12030;50.376;8.762;2022-08-06T00:03:03;15.20;99.90
23703;DHT22;12030;50.376;8.762;2022-08-06T00:05:29;15.20;99.90
23703;DHT22;12030;50.376;8.762;2022-08-06T00:07:54;15.10;99.90
23703;DHT22;12030;50.376;8.762;2022-08-06T00:10:22;15.00;99.90
23703;DHT22;12030;50.376;8.762;2022-08-06T00:12:47;15.00;99.90
23703;DHT22;12030;50.376;8.762;2022-08-06T00:15:13;15.00;99.90
23703;DHT22;12030;50.376;8.762;2022-08-06T00:17:39;15.00;99.90
23703;DHT22;12030;50.376;8.762;2022-08-06T00:20:08;15.10;99.90
23703;DHT22;12030;50.376;8.762;2022-08-06T00:22:34;15.00;99.90
23703;DHT22;12030;50.376;8.762;2022-08-06T00:24:59;15.00;99.90
23703;DHT22;12030;50.376;8.762;2022-08-06T00:27:25;14.80;99.90
23703;DHT22;12030;50.376;8.762;2022-08-06T00:29:50;14.80;99.90
23703;DHT22;12030;50.376;8.762;2022-08-06T00:32:16;14.90;99.90
23703;DHT22;12030;50.376;8.762;2022-08-06T00:34:41;14.90;99.90
23703;DHT22;12030;50.376;8.762;2022-08-06T00:37:07;14.90;99.90
23703;DHT22;12030;50.376;8.762;2022-08-06T00:39:33;14.80;99.90
23703;DHT22;12030;50.376;8.762;2022-08-06T00:41:58;14.70;99.90
23703;DHT22;12030;50.376;8.762;2022-08-06T00:44:24;14.70;99.90
23703;DHT22;12030;50.376;8.762;2022-08-06T00:46:50;14.60;99.90
23703;DHT22;12030;50.376;8.762;2022-08-06T00:49:16;14.60;99.90
23703;DHT22;12030;50.376;8.762;2022-08-06T00:51:41;14.40;99.90
23703;DHT22;12030;50.376;8.762;2022-08-06T00:54:08;14.50;99.90
23703;DHT22;12030;50.376;8.762;2022-08-06T00:56:33;14.50;99.90
23703;DHT22;12030;50.376;8.762;2022-08-06T00:58:59;14.30;99.90
23703;DHT22;12030;50.376;8.762;2022-08-06T01:01:24;14.30;99.90
23703;DHT22;12030;50.376;8.762;2022-08-06T01:03:50;14.20;99.90
23703;DHT22;12030;50.376;8.762;2022-08-06T01:06:16;14.20;99.90
23703;DHT22;12030;50.376;8.762;2022-08-06T01:08:41;14.20;99.90
23703;DHT22;12030;50.376;8.762;2022-08-06T01:11:07;14.20;99.90
23703;DHT22;12030;50.376;8.762;2022-08-06T01:13:32;14.20;99.90
23703;DHT22;12030;50.376;8.762;2022-08-06T01:16:12;14.20;99.90
23703;DHT22;12030;50.376;8.762;2022-08-06T01:18:50;14.10;99.90
23703;DHT22;12030;50.376;8.762;2022-08-06T01:26:55;13.80;99.90
23703;DHT22;12030;50.376;8.762;2022-08-06T01:29:26;13.80;99.90
23703;DHT22;12030;50.376;8.762;2022-08-06T01:32:03;13.70;99.90
23703;DHT22;12030;50.376;8.762;2022-08-06T01:35:29;13.80;99.90
23703;DHT22;12030;50.376;8.762;2022-08-06T01:37:32;13.70;99.90
23703;DHT22;12030;50.376;8.762;2022-08-06T01:40:02;13.60;99.90
23703;DHT22;12030;50.376;8.762;2022-08-06T01:42:31;13.40;99.90
23703;DHT22;12030;50.376;8.762;2022-08-06T01:44:59;13.50;99.90
23703;DHT22;12030;50.376;8.762;2022-08-06T01:47:30;13.50;99.90
23703;DHT22;12030;50.376;8.762;2022-08-06T01:50:03;13.50;99.90
23703;DHT22;12030;50.376;8.762;2022-08-06T01:52:39;13.30;99.90
23703;DHT22;12030;50.376;8.762;2022-08-06T01:55:13;13.20;99.90
23703;DHT22;12030;50.376;8.762;2022-08-06T01:57:45;13.20;99.90
23703;DHT22;12030;50.376;8.762;2022-08-06T02:00:12;13.20;99.90
23703;DHT22;12030;50.376;8.762;2022-08-06T02:02:39;13.30;99.90
23703;DHT22;12030;50.376;8.762;2022-08-06T02:05:06;13.30;99.90
23703;DHT22;12030;50.376;8.762;2022-08-06T02:07:37;13.30;99.90
23703;DHT22;12030;50.376;8.762;2022-08-06T02:10:05;13.20;99.90
23703;DHT22;12030;50.376;8.762;2022-08-06T02:12:32;13.10;99.90
23703;DHT22;12030;50.376;8.762;2022-08-06T02:15:04;13.00;99.90
23703;DHT22;12030;50.376;8.762;2022-08-06T02:17:34;13.00;99.90
23703;DHT22;12030;50.376;8.762;2022-08-06T02:20:02;13.10;99.90
23703;DHT22;12030;50.376;8.762;2022-08-06T02:22:30;12.90;99.90
23703;DHT22;12030;50.376;8.762;2022-08-06T02:25:00;12.80;99.90
23703;DHT22;12030;50.376;8.762;2022-08-06T02:27:27;12.80;99.90
23703;DHT22;12030;50.376;8.762;2022-08-06T02:29:55;12.80;99.90
23703;DHT22;12030;50.376;8.762;2022-08-06T02:32:23;12.80;99.90
23703;DHT22;12030;50.376;8.762;2022-08-06T02:34:48;12.70;99.90
23703;DHT22;12030;50.376;8.762;2022-08-06T02:37:26;12.70;99.90
23703;DHT22;12030;50.376;8.762;2022-08-06T02:39:59;12.60;99.90
23703;DHT22;12030;50.376;8.762;2022-08-06T02:42:44;12.50;99.90
23703;DHT22;12030;50.376;8.762;2022-08-06T02:45:13;12.50;99.90
23703;DHT22;12030;50.376;8.762;2022-08-06T02:47:47;12.40;99.90
23703;DHT22;12030;50.376;8.762;2022-08-06T02:50:16;12.40;99.90
23703;DHT22;12030;50.376;8.762;2022-08-06T02:52:46;12.30;99.90
23703;DHT22;12030;50.376;8.762;2022-08-06T02:55:18;12.30;99.90
23703;DHT22;12030;50.376;8.762;2022-08-06T02:57:53;12.30;99.90
23703;DHT22;12030;50.376;8.762;2022-08-06T03:00:20;12.20;99.90
23703;DHT22;12030;50.376;8.762;2022-08-06T03:02:48;12.10;99.90
23703;DHT22;12030;50.376;8.762;2022-08-06T03:05:19;12.00;99.90
23703;DHT22;12030;50.376;8.762;2022-08-06T03:07:47;12.00;99.90
23703;DHT22;12030;50.376;8.762;2022-08-06T03:10:14;12.10;99.90
23703;DHT22;12030;50.376;8.762;2022-08-06T03:12:42;12.10;99.90
23703;DHT22;12030;50.376;8.762;2022-08-06T03:15:08;12.10;99.90
23703;DHT22;12030;50.376;8.762;2022-08-06T03:17:36;12.10;99.90
23703;DHT22;12030;50.376;8.762;2022-08-06T03:20:03;12.00;99.90
23703;DHT22;12030;50.376;8.762;2022-08-06T03:22:30;12.00;99.90
23703;DHT22;12030;50.376;8.762;2022-08-06T03:24:59;12.00;99.90
23703;DHT22;12030;50.376;8.762;2022-08-06T03:27:26;12.00;99.90
23703;DHT22;12030;50.376;8.762;2022-08-06T03:29:53;12.00;99.90
23703;DHT22;12030;50.376;8.762;2022-08-06T03:32:18;11.90;99.90
23703;DHT22;12030;50.376;8.762;2022-08-06T03:34:45;11.80;99.90
23703;DHT22;12030;50.376;8.762;2022-08-06T03:37:12;11.80;99.90
23703;DHT22;12030;50.376;8.762;2022-08-06T03:39:39;11.80;99.90
23703;DHT22;12030;50.376;8.762;2022-08-06T03:42:06;11.70;99.90
23703;DHT22;12030;50.376;8.762;2022-08-06T03:44:32;11.70;99.90
23703;DHT22;12030;50.376;8.762;2022-08-06T03:49:40;11.60;99.90
23703;DHT22;12030;50.376;8.762;2022-08-06T03:52:08;11.60;99.90
23703;DHT22;12030;50.376;8.762;2022-08-06T03:54:38;11.50;99.90
23703;DHT22;12030;50.376;8.762;2022-08-06T03:57:11;11.50;99.90
23703;DHT22;12030;50.376;8.762;2022-08-06T03:59:44;11.60;99.90
23703;DHT22;12030;50.376;8.762;2022-08-06T04:02:11;11.70;99.90
23703;DHT22;12030;50.376;8.762;2022-08-06T04:04:38;11.90;99.90
23703;DHT22;12030;50.376;8.762;2022-08-06T04:07:04;11.90;99.90
23703;DHT22;12030;50.376;8.762;2022-08-06T04:09:31;11.90;99.90
23703;DHT22;12030;50.376;8.762;2022-08-06T04:11:58;11.90;99.90
23703;DHT22;12030;50.376;8.762;2022-08-06T04:14:24;11.80;99.90
23703;DHT22;12030;50.376;8.762;2022-08-06T04:16:52;11.80;99.90
23703;DHT22;12030;50.376;8.762;2022-08-06T04:19:19;11.80;99.90
23703;DHT22;12030;50.376;8.762;2022-08-06T04:21:46;11.80;99.90
23703;DHT22;12030;50.376;8.762;2022-08-06T04:24:12;11.80;99.90
23703;DHT22;12030;50.376;8.762;2022-08-06T04:26:39;11.70;99.90
23703;DHT22;12030;50.376;8.762;2022-08-06T04:29:07;11.80;99.90
23703;DHT22;12030;50.376;8.762;2022-08-06T04:31:34;11.80;99.90
23703;DHT22;12030;50.376;8.762;2022-08-06T04:34:01;11.80;99.90
23703;DHT22;12030;50.376;8.762;2022-08-06T04:36:27;11.80;99.90
23703;DHT22;12030;50.376;8.762;2022-08-06T04:38:54;11.80;99.90
23703;DHT22;12030;50.376;8.762;2022-08-06T04:41:21;11.80;99.90
23703;DHT22;12030;50.376;8.762;2022-08-06T04:43:47;11.80;99.90
23703;DHT22;12030;50.376;8.762;2022-08-06T04:46:13;11.90;99.90
23703;DHT22;12030;50.376;8.762;2022-08-06T04:48:39;11.90;99.90
23703;DHT22;12030;50.376;8.762;2022-08-06T04:51:05;12.00;99.90
23703;DHT22;12030;50.376;8.762;2022-08-06T04:53:38;12.00;99.90
23703;DHT22;12030;50.376;8.762;2022-08-06T04:56:05;12.10;99.90
23703;DHT22;12030;50.376;8.762;2022-08-06T04:58:32;12.10;99.90
23703;DHT22;12030;50.376;8.762;2022-08-06T05:00:57;12.20;99.90
23703;DHT22;12030;50.376;8.762;2022-08-06T05:03:23;12.30;99.90
23703;DHT22;12030;50.376;8.762;2022-08-06T05:08:25;12.50;99.90
23703;DHT22;12030;50.376;8.762;2022-08-06T05:10:56;12.60;99.90
23703;DHT22;12030;50.376;8.762;2022-08-06T05:13:29;12.60;99.90
23703;DHT22;12030;50.376;8.762;2022-08-06T05:15:57;12.70;99.90
23703;DHT22;12030;50.376;8.762;2022-08-06T05:18:30;12.80;99.90
23703;DHT22;12030;50.376;8.762;2022-08-06T05:21:00;12.90;99.90
23703;DHT22;12030;50.376;8.762;2022-08-06T05:23:45;13.00;99.90
23703;DHT22;12030;50.376;8.762;2022-08-06T05:26:12;13.00;99.90
23703;DHT22;12030;50.376;8.762;2022-08-06T05:28:39;13.10;99.90
23703;DHT22;12030;50.376;8.762;2022-08-06T05:31:05;13.10;99.90
23703;DHT22;12030;50.376;8.762;2022-08-06T05:33:33;13.20;99.90
23703;DHT22;12030;50.376;8.762;2022-08-06T05:36:00;13.30;99.90
23703;DHT22;12030;50.376;8.762;2022-08-06T05:38:27;13.30;99.90
23703;DHT22;12030;50.376;8.762;2022-08-06T05:40:53;13.40;99.90
23703;DHT22;12030;50.376;8.762;2022-08-06T05:43:20;13.50;99.90
23703;DHT22;12030;50.376;8.762;2022-08-06T05:45:47;13.60;99.90
23703;DHT22;12030;50.376;8.762;2022-08-06T05:48:15;13.70;99.90
23703;DHT22;12030;50.376;8.762;2022-08-06T05:50:47;13.70;99.90
23703;DHT22;12030;50.376;8.762;2022-08-06T05:53:19;13.80;99.90
23703;DHT22;12030;50.376;8.762;2022-08-06T05:55:48;13.90;99.90
23703;DHT22;12030;50.376;8.762;2022-08-06T05:58:22;14.00;99.90
23703;DHT22;12030;50.376;8.762;2022-08-06T06:00:50;14.10;99.90
23703;DHT22;12030;50.376;8.762;2022-08-06T06:03:17;14.20;99.90
23703;DHT22;12030;50.376;8.762;2022-08-06T06:05:44;14.20;99.90
23703;DHT22;12030;50.376;8.762;2022-08-06T06:08:10;14.30;99.90
23703;DHT22;12030;50.376;8.762;2022-08-06T06:10:38;14.40;99.90
23703;DHT22;12030;50.376;8.762;2022-08-06T06:13:05;14.50;99.90
23703;DHT22;12030;50.376;8.762;2022-08-06T06:15:37;14.60;99.90
23703;DHT22;12030;50.376;8.762;2022-08-06T06:21:13;14.90;99.90
23703;DHT22;12030;50.376;8.762;2022-08-06T06:23:54;15.10;99.90
23703;DHT22;12030;50.376;8.762;2022-08-06T06:26:42;15.20;99.90
23703;DHT22;12030;50.376;8.762;2022-08-06T06:29:40;15.40;99.90
23703;DHT22;12030;50.376;8.762;2022-08-06T06:32:14;15.60;99.90
23703;DHT22;12030;50.376;8.762;2022-08-06T06:43:11;15.90;99.90
23703;DHT22;12030;50.376;8.762;2022-08-06T06:45:48;16.10;99.90
23703;DHT22;12030;50.376;8.762;2022-08-06T06:48:21;16.00;99.90
23703;DHT22;12030;50.376;8.762;2022-08-06T06:50:52;16.10;99.90
23703;DHT22;12030;50.376;8.762;2022-08-06T06:53:21;16.20;99.90
23703;DHT22;12030;50.376;8.762;2022-08-06T06:55:52;16.30;99.90
23703;DHT22;12030;50.376;8.762;2022-08-06T06:58:31;16.40;99.90
23703;DHT22;12030;50.376;8.762;2022-08-06T07:00:58;16.50;99.90
23703;DHT22;12030;50.376;8.762;2022-08-06T07:03:25;16.70;99.90
23703;DHT22;12030;50.376;8.762;2022-08-06T07:05:53;16.70;99.90
23703;DHT22;12030;50.376;8.762;2022-08-06T07:08:20;16.90;99.90
23703;DHT22;12030;50.376;8.762;2022-08-06T07:10:47;17.00;99.90
23703;DHT22;12030;50.376;8.762;2022-08-06T07:13:14;17.10;99.90
23703;DHT22;12030;50.376;8.762;2022-08-06T07:15:41;17.20;99.90
23703;DHT22;12030;50.376;8.762;2022-08-06T07:18:07;17.30;99.90
23703;DHT22;12030;50.376;8.762;2022-08-06T07:20:34;17.40;99.90
23703;DHT22;12030;50.376;8.762;2022-08-06T07:23:03;17.50;99.90
23703;DHT22;12030;50.376;8.762;2022-08-06T07:25:29;17.60;99.90
23703;DHT22;12030;50.376;8.762;2022-08-06T07:27:55;17.60;99.90
23703;DHT22;12030;50.376;8.762;2022-08-06T07:30:21;17.70;99.90
23703;DHT22;12030;50.376;8.762;2022-08-06T07:32:48;17.70;99.90
23703;DHT22;12030;50.376;8.762;2022-08-06T07:35:17;17.80;99.90
23703;DHT22;12030;50.376;8.762;2022-08-06T07:38:00;17.90;99.90
23703;DHT22;12030;50.376;8.762;2022-08-06T07:42:59;18.20;99.90
23703;DHT22;12030;50.376;8.762;2022-08-06T07:45:28;18.40;99.90
23703;DHT22;12030;50.376;8.762;2022-08-06T07:47:56;18.40;99.90
23703;DHT22;12030;50.376;8.762;2022-08-06T07:50:24;18.30;99.90
23703;DHT22;12030;50.376;8.762;2022-08-06T07:52:54;18.30;99.90
23703;DHT22;12030;50.376;8.762;2022-08-06T07:55:21;18.50;99.90
23703;DHT22;12030;50.376;8.762;2022-08-06T07:57:51;18.50;99.90
23703;DHT22;12030;50.376;8.762;2022-08-06T08:00:17;18.70;99.90
23703;DHT22;12030;50.376;8.762;2022-08-06T08:02:44;18.80;99.90
23703;DHT22;12030;50.376;8.762;2022-08-06T08:05:30;19.00;99.90
23703;DHT22;12030;50.376;8.762;2022-08-06T08:08:15;19.10;99.90
23703;DHT22;12030;50.376;8.762;2022-08-06T08:10:41;19.40;99.90
23703;DHT22;12030;50.376;8.762;2022-08-06T08:13:08;19.50;99.40
23703;DHT22;12030;50.376;8.762;2022-08-06T08:15:34;19.50;99.70
23703;DHT22;12030;50.376;8.762;2022-08-06T08:18:00;19.70;99.40
23703;DHT22;12030;50.376;8.762;2022-08-06T08:20:28;19.60;99.10
23703;DHT22;12030;50.376;8.762;2022-08-06T08:22:54;19.60;99.50
23703;DHT22;12030;50.376;8.762;2022-08-06T08:25:19;19.60;98.20
23703;DHT22;12030;50.376;8.762;2022-08-06T08:27:45;19.80;98.40
23703;DHT22;12030;50.376;8.762;2022-08-06T08:30:10;19.90;98.50
23703;DHT22;12030;50.376;8.762;2022-08-06T08:32:36;19.90;97.30
23703;DHT22;12030;50.376;8.762;2022-08-06T08:35:02;19.50;96.30
23703;DHT22;12030;50.376;8.762;2022-08-06T08:37:28;19.40;97.00
23703;DHT22;12030;50.376;8.762;2022-08-06T08:39:53;19.70;97.80
23703;DHT22;12030;50.376;8.762;2022-08-06T08:42:27;19.90;97.30
23703;DHT22;12030;50.376;8.762;2022-08-06T08:44:54;19.80;96.00
23703;DHT22;12030;50.376;8.762;2022-08-06T08:47:21;20.10;96.80
23703;DHT22;12030;50.376;8.762;2022-08-06T08:49:51;20.20;96.50
23703;DHT22;12030;50.376;8.762;2022-08-06T08:52:21;20.10;96.10
23703;DHT22;12030;50.376;8.762;2022-08-06T08:54:51;20.40;96.00
23703;DHT22;12030;50.376;8.762;2022-08-06T08:57:19;19.70;95.90
23703;DHT22;12030;50.376;8.762;2022-08-06T08:59:48;19.50;95.20
23703;DHT22;12030;50.376;8.762;2022-08-06T09:02:14;19.50;96.90
23703;DHT22;12030;50.376;8.762;2022-08-06T09:04:40;19.70;96.40
23703;DHT22;12030;50.376;8.762;2022-08-06T09:07:08;19.70;96.00
23703;DHT22;12030;50.376;8.762;2022-08-06T09:09:34;19.40;96.40
23703;DHT22;12030;50.376;8.762;2022-08-06T09:12:03;19.50;96.60
23703;DHT22;12030;50.376;8.762;2022-08-06T09:14:29;19.70;96.10
23703;DHT22;12030;50.376;8.762;2022-08-06T09:16:54;20.00;96.50
23703;DHT22;12030;50.376;8.762;2022-08-06T09:19:22;20.10;96.00
23703;DHT22;12030;50.376;8.762;2022-08-06T09:21:48;20.20;97.30
23703;DHT22;12030;50.376;8.762;2022-08-06T09:24:14;20.40;96.00
23703;DHT22;12030;50.376;8.762;2022-08-06T09:27:15;20.60;95.10
23703;DHT22;12030;50.376;8.762;2022-08-06T09:29:55;20.70;93.40
23703;DHT22;12030;50.376;8.762;2022-08-06T09:32:41;20.60;93.20
23703;DHT22;12030;50.376;8.762;2022-08-06T09:37:42;20.60;92.30
23703;DHT22;12030;50.376;8.762;2022-08-06T09:40:14;20.80;92.00
23703;DHT22;12030;50.376;8.762;2022-08-06T09:42:43;20.80;91.80
23703;DHT22;12030;50.376;8.762;2022-08-06T09:45:11;20.70;90.30
23703;DHT22;12030;50.376;8.762;2022-08-06T09:47:37;20.80;91.00
23703;DHT22;12030;50.376;8.762;2022-08-06T09:50:05;20.90;91.40
23703;DHT22;12030;50.376;8.762;2022-08-06T09:52:31;20.90;91.70
23703;DHT22;12030;50.376;8.762;2022-08-06T09:54:56;20.90;90.90
23703;DHT22;12030;50.376;8.762;2022-08-06T09:57:24;21.10;90.70
23703;DHT22;12030;50.376;8.762;2022-08-06T09:59:50;21.10;89.60
23703;DHT22;12030;50.376;8.762;2022-08-06T10:02:17;21.00;89.90
23703;DHT22;12030;50.376;8.762;2022-08-06T10:04:44;21.00;90.20
23703;DHT22;12030;50.376;8.762;2022-08-06T10:07:10;21.10;90.80
23703;DHT22;12030;50.376;8.762;2022-08-06T10:09:36;21.30;91.30
23703;DHT22;12030;50.376;8.762;2022-08-06T10:12:20;21.50;91.30
23703;DHT22;12030;50.376;8.762;2022-08-06T10:14:45;21.40;90.00
23703;DHT22;12030;50.376;8.762;2022-08-06T10:17:15;21.20;90.00
23703;DHT22;12030;50.376;8.762;2022-08-06T10:19:42;21.20;87.00
23703;DHT22;12030;50.376;8.762;2022-08-06T10:22:16;21.30;89.30
23703;DHT22;12030;50.376;8.762;2022-08-06T10:24:46;21.40;88.40
23703;DHT22;12030;50.376;8.762;2022-08-06T10:27:16;21.60;91.30
23703;DHT22;12030;50.376;8.762;2022-08-06T10:29:54;21.90;90.30
23703;DHT22;12030;50.376;8.762;2022-08-06T10:32:26;22.00;89.10
23703;DHT22;12030;50.376;8.762;2022-08-06T10:34:54;22.00;86.90
23703;DHT22;12030;50.376;8.762;2022-08-06T10:37:21;21.90;86.00
23703;DHT22;12030;50.376;8.762;2022-08-06T10:39:57;21.70;85.30
23703;DHT22;12030;50.376;8.762;2022-08-06T10:42:25;21.70;86.60
23703;DHT22;12030;50.376;8.762;2022-08-06T10:44:51;21.90;86.50
23703;DHT22;12030;50.376;8.762;2022-08-06T10:47:17;21.90;85.40
23703;DHT22;12030;50.376;8.762;2022-08-06T10:49:44;22.00;84.70
23703;DHT22;12030;50.376;8.762;2022-08-06T10:52:11;22.00;84.70
23703;DHT22;12030;50.376;8.762;2022-08-06T10:54:39;22.20;88.10
23703;DHT22;12030;50.376;8.762;2022-08-06T10:57:06;22.10;84.40
23703;DHT22;12030;50.376;8.762;2022-08-06T10:59:32;22.10;85.40
23703;DHT22;12030;50.376;8.762;2022-08-06T11:15:15;22.60;83.40
23703;DHT22;12030;50.376;8.762;2022-08-06T11:17:50;22.50;83.80
23703;DHT22;12030;50.376;8.762;2022-08-06T11:25:43;22.90;84.40
23703;DHT22;12030;50.376;8.762;2022-08-06T11:30:47;22.70;80.60
23703;DHT22;12030;50.376;8.762;2022-08-06T11:36:00;22.90;82.10
23703;DHT22;12030;50.376;8.762;2022-08-06T11:41:30;23.10;83.20
23703;DHT22;12030;50.376;8.762;2022-08-06T11:49:11;22.90;80.90
23703;DHT22;12030;50.376;8.762;2022-08-06T11:51:55;23.00;80.90
23703;DHT22;12030;50.376;8.762;2022-08-06T11:54:32;23.30;81.70
23703;DHT22;12030;50.376;8.762;2022-08-06T11:59:27;23.10;78.70
23703;DHT22;12030;50.376;8.762;2022-08-06T12:01:53;23.30;79.70
23703;DHT22;12030;50.376;8.762;2022-08-06T12:04:45;23.50;79.60
23703;DHT22;12030;50.376;8.762;2022-08-06T12:12:42;23.70;74.60
23703;DHT22;12030;50.376;8.762;2022-08-06T12:17:57;23.80;75.20
23703;DHT22;12030;50.376;8.762;2022-08-06T12:20:33;23.90;73.60
23703;DHT22;12030;50.376;8.762;2022-08-06T12:23:22;23.80;73.90
23703;DHT22;12030;50.376;8.762;2022-08-06T12:25:48;24.00;75.80
23703;DHT22;12030;50.376;8.762;2022-08-06T12:28:16;23.90;74.00
23703;DHT22;12030;50.376;8.762;2022-08-06T12:30:44;24.00;74.10
23703;DHT22;12030;50.376;8.762;2022-08-06T12:33:10;24.30;75.10
23703;DHT22;12030;50.376;8.762;2022-08-06T12:35:47;24.40;73.60
23703;DHT22;12030;50.376;8.762;2022-08-06T12:38:12;24.60;73.70
23703;DHT22;12030;50.376;8.762;2022-08-06T12:40:38;24.60;72.10
23703;DHT22;12030;50.376;8.762;2022-08-06T12:45:32;25.10;72.10
23703;DHT22;12030;50.376;8.762;2022-08-06T12:48:05;25.20;70.40
23703;DHT22;12030;50.376;8.762;2022-08-06T12:50:41;25.00;69.40
23703;DHT22;12030;50.376;8.762;2022-08-06T12:53:13;24.80;69.10
23703;DHT22;12030;50.376;8.762;2022-08-06T12:55:50;24.90;69.10
23703;DHT22;12030;50.376;8.762;2022-08-06T12:58:30;25.20;71.10
23703;DHT22;12030;50.376;8.762;2022-08-06T13:00:58;25.30;68.30
23703;DHT22;12030;50.376;8.762;2022-08-06T13:03:26;25.40;65.60
23703;DHT22;12030;50.376;8.762;2022-08-06T13:05:53;25.30;65.00
23703;DHT22;12030;50.376;8.762;2022-08-06T13:08:20;25.10;66.20
23703;DHT22;12030;50.376;8.762;2022-08-06T13:10:50;25.40;70.10
23703;DHT22;12030;50.376;8.762;2022-08-06T13:13:16;25.60;67.80
23703;DHT22;12030;50.376;8.762;2022-08-06T13:15:42;25.60;64.60
23703;DHT22;12030;50.376;8.762;2022-08-06T13:18:13;25.60;64.20
23703;DHT22;12030;50.376;8.762;2022-08-06T13:20:42;25.70;65.80
23703;DHT22;12030;50.376;8.762;2022-08-06T13:23:09;25.80;63.50
23703;DHT22;12030;50.376;8.762;2022-08-06T13:25:43;25.80;61.80
23703;DHT22;12030;50.376;8.762;2022-08-06T13:28:14;26.00;61.60
23703;DHT22;12030;50.376;8.762;2022-08-06T13:30:41;26.20;62.50
23703;DHT22;12030;50.376;8.762;2022-08-06T13:33:15;26.50;61.10
23703;DHT22;12030;50.376;8.762;2022-08-06T13:35:46;26.60;60.40
23703;DHT22;12030;50.376;8.762;2022-08-06T13:38:33;26.60;59.90
23703;DHT22;12030;50.376;8.762;2022-08-06T13:40:59;26.60;57.70
23703;DHT22;12030;50.376;8.762;2022-08-06T13:46:05;26.80;57.90
23703;DHT22;12030;50.376;8.762;2022-08-06T13:48:31;27.10;59.60
23703;DHT22;12030;50.376;8.762;2022-08-06T13:50:56;27.10;57.60
23703;DHT22;12030;50.376;8.762;2022-08-06T13:53:22;26.90;58.00
23703;DHT22;12030;50.376;8.762;2022-08-06T13:55:47;26.90;57.40
23703;DHT22;12030;50.376;8.762;2022-08-06T13:58:13;27.00;60.40
23703;DHT22;12030;50.376;8.762;2022-08-06T14:00:39;27.10;59.30
23703;DHT22;12030;50.376;8.762;2022-08-06T14:03:06;26.80;61.10
23703;DHT22;12030;50.376;8.762;2022-08-06T14:05:32;26.90;60.10
23703;DHT22;12030;50.376;8.762;2022-08-06T14:07:58;27.10;58.90
23703;DHT22;12030;50.376;8.762;2022-08-06T14:10:23;27.30;59.30
23703;DHT22;12030;50.376;8.762;2022-08-06T14:12:49;27.30;56.70
23703;DHT22;12030;50.376;8.762;2022-08-06T14:15:33;27.30;56.20
23703;DHT22;12030;50.376;8.762;2022-08-06T14:17:59;27.50;55.70
23703;DHT22;12030;50.376;8.762;2022-08-06T14:20:25;27.60;56.60
23703;DHT22;12030;50.376;8.762;2022-08-06T14:22:52;27.30;53.70
23703;DHT22;12030;50.376;8.762;2022-08-06T14:25:17;27.60;55.80
23703;DHT22;12030;50.376;8.762;2022-08-06T14:27:43;27.80;55.90
23703;DHT22;12030;50.376;8.762;2022-08-06T14:30:09;27.30;55.60
23703;DHT22;12030;50.376;8.762;2022-08-06T14:32:34;27.10;56.60
23703;DHT22;12030;50.376;8.762;2022-08-06T14:35:00;27.10;56.00
23703;DHT22;12030;50.376;8.762;2022-08-06T14:37:26;27.70;57.70
23703;DHT22;12030;50.376;8.762;2022-08-06T14:39:51;28.10;58.20
23703;DHT22;12030;50.376;8.762;2022-08-06T14:42:16;28.30;58.50
23703;DHT22;12030;50.376;8.762;2022-08-06T14:45:01;28.30;55.30
23703;DHT22;12030;50.376;8.762;2022-08-06T14:47:32;28.60;56.00
23703;DHT22;12030;50.376;8.762;2022-08-06T14:49:57;28.60;56.10
23703;DHT22;12030;50.376;8.762;2022-08-06T14:52:23;28.40;52.70
23703;DHT22;12030;50.376;8.762;2022-08-06T14:55:02;28.80;55.90
23703;DHT22;12030;50.376;8.762;2022-08-06T14:57:37;27.70;53.10
23703;DHT22;12030;50.376;8.762;2022-08-06T15:00:06;27.30;55.00
23703;DHT22;12030;50.376;8.762;2022-08-06T15:02:33;27.50;54.50
23703;DHT22;12030;50.376;8.762;2022-08-06T15:04:58;27.50;55.10
23703;DHT22;12030;50.376;8.762;2022-08-06T15:07:25;27.90;56.70
23703;DHT22;12030;50.376;8.762;2022-08-06T15:09:50;27.30;55.80
23703;DHT22;12030;50.376;8.762;2022-08-06T15:12:17;27.50;55.60
23703;DHT22;12030;50.376;8.762;2022-08-06T15:14:42;27.60;55.90
23703;DHT22;12030;50.376;8.762;2022-08-06T15:17:08;27.50;53.50
23703;DHT22;12030;50.376;8.762;2022-08-06T15:19:34;27.30;54.40
23703;DHT22;12030;50.376;8.762;2022-08-06T15:22:00;27.30;55.00
23703;DHT22;12030;50.376;8.762;2022-08-06T15:24:25;27.60;55.50
23703;DHT22;12030;50.376;8.762;2022-08-06T15:26:52;28.00;55.20
23703;DHT22;12030;50.376;8.762;2022-08-06T15:29:20;28.00;54.30
23703;DHT22;12030;50.376;8.762;2022-08-06T15:31:46;27.80;54.70
23703;DHT22;12030;50.376;8.762;2022-08-06T15:34:12;27.60;53.40
23703;DHT22;12030;50.376;8.762;2022-08-06T15:36:39;27.60;54.10
23703;DHT22;12030;50.376;8.762;2022-08-06T15:39:04;27.90;55.00
23703;DHT22;12030;50.376;8.762;2022-08-06T15:41:30;27.70;53.00
23703;DHT22;12030;50.376;8.762;2022-08-06T15:43:57;26.90;53.30
23703;DHT22;12030;50.376;8.762;2022-08-06T15:46:22;27.00;55.40
23703;DHT22;12030;50.376;8.762;2022-08-06T15:48:48;27.40;54.70
23703;DHT22;12030;50.376;8.762;2022-08-06T15:51:14;27.80;54.40
23703;DHT22;12030;50.376;8.762;2022-08-06T15:53:39;28.00;54.20
23703;DHT22;12030;50.376;8.762;2022-08-06T15:56:05;28.00;53.00
23703;DHT22;12030;50.376;8.762;2022-08-06T15:58:31;27.90;53.10
23703;DHT22;12030;50.376;8.762;2022-08-06T16:00:56;27.50;52.80
23703;DHT22;12030;50.376;8.762;2022-08-06T16:03:22;27.30;52.90
23703;DHT22;12030;50.376;8.762;2022-08-06T16:05:49;27.40;54.40
23703;DHT22;12030;50.376;8.762;2022-08-06T16:08:14;27.20;53.80
23703;DHT22;12030;50.376;8.762;2022-08-06T16:10:45;27.40;53.80
23703;DHT22;12030;50.376;8.762;2022-08-06T16:13:12;27.10;54.60
23703;DHT22;12030;50.376;8.762;2022-08-06T16:15:43;27.30;54.40
23703;DHT22;12030;50.376;8.762;2022-08-06T16:18:09;27.70;54.60
23703;DHT22;12030;50.376;8.762;2022-08-06T16:20:34;27.30;52.80
23703;DHT22;12030;50.376;8.762;2022-08-06T16:23:00;27.20;53.20
23703;DHT22;12030;50.376;8.762;2022-08-06T16:25:26;27.00;53.90
23703;DHT22;12030;50.376;8.762;2022-08-06T16:27:51;27.50;53.70
23703;DHT22;12030;50.376;8.762;2022-08-06T16:30:17;27.70;53.50
23703;DHT22;12030;50.376;8.762;2022-08-06T16:32:42;27.20;53.10
23703;DHT22;12030;50.376;8.762;2022-08-06T16:35:08;27.40;53.70
23703;DHT22;12030;50.376;8.762;2022-08-06T16:37:33;27.30;54.10
23703;DHT22;12030;50.376;8.762;2022-08-06T16:39:59;27.10;53.30
23703;DHT22;12030;50.376;8.762;2022-08-06T16:42:25;27.30;55.20
23703;DHT22;12030;50.376;8.762;2022-08-06T16:44:50;27.50;53.20
23703;DHT22;12030;50.376;8.762;2022-08-06T16:47:16;27.20;53.50
23703;DHT22;12030;50.376;8.762;2022-08-06T16:49:41;27.20;53.70
23703;DHT22;12030;50.376;8.762;2022-08-06T16:52:07;27.10;53.50
23703;DHT22;12030;50.376;8.762;2022-08-06T16:54:33;27.30;53.90